Hauptseite
METAR-TAF:

METAR-TAF

Flughäfen :

Fliegerhorst Lechfeld

Lechfeld, Deutschland

Breite: 48-11N, Länge: 010-52E, Höhe: 555 m

Beobachtung

Neuester Wetterbericht von vor 59 Minuten, um 23:20 UTC
Wind 2 kt aus Süd/Südwest
Temperatur 17°C
Luftfeuchtigkeit 82%
Luftdruck 1019 hPa
Sichtweite 10 km oder mehr

METAR: ETSL 202320Z 20002KT 9999 17/14 Q1019 BLU+

Zeit: 02:19 (00:19 UTC)

Prognose

Neuester Wetterbericht von vor 9 Stunden und 19 Minuten, um 15:00 UTC
Gültige Prognose vom 20 um 15 UTC bis 20 um 23 UTC
Wind 7 kt aus Nordost
Sichtweite: 1500 m
Leicht bewölkt in der Höhe von 5000 ft

TAF: ETSL 201500Z 2015/2023 04007KT 9999 NSW FEW050 CANCEL 1500 BY ETGL

Wetterbeobachtungen und Prognosen von mehr als 4000 Flughäfen (METAR und TAF Bericht).

Die verfügbaren Stationen werden durch gelbe und rote Markierungen auf der Karte dargestellt.

Führen Sie die Maus auf sie, um den Namen der Station zu sehen.

Darauf klicken, um die Beobachtung von Wetterbeobachtungen und Prognosen zu sehen.

Um die Karte zu ändern : klicken Sie auf den grünen Tasten mit einem schwarzen Kreuz Zum Vergrößern, auf den grünen Button mit einem Gedankenstrich zu verkleinern, oder auf die grünen Pfeile für benachbarte Karten.


METAR-TAF: